Time;durP1;ratioP1;P1;durP2;ratioP2;P2;SDS_P1;SDS_P2;PMS_P1;PMS_P2;Temp;Humidity;BMP_temperature;BMP_pressure;BME280_temperature;BME280_humidity;BME280_pressure;Samples;Min_cycle;Max_cycle;Signal;HPM_P1;HPM_P2
2022/11/15 00:01:20;;;;;;;18.10;16.30;;;;;;;3.49;100.00;93370.22;5089496;28;20212;-68
2022/11/15 00:03:46;;;;;;;21.97;17.07;;;;;;;3.49;99.88;93375.38;5091130;28;20189;-68
2022/11/15 00:06:11;;;;;;;24.67;18.57;;;;;;;3.46;100.00;93368.06;5089695;28;20232;-67
2022/11/15 00:08:37;;;;;;;26.80;20.03;;;;;;;3.57;100.00;93366.53;5091139;28;20172;-68
2022/11/15 00:11:03;;;;;;;34.67;22.33;;;;;;;3.39;100.00;93362.22;5087937;28;20284;-67
2022/11/15 00:13:29;;;;;;;32.10;22.53;;;;;;;3.39;100.00;93351.88;5089917;28;20322;-67
2022/11/15 00:15:59;;;;;;;37.70;23.30;;;;;;;3.33;100.00;93358.69;5099111;28;20228;-68
2022/11/15 00:18:25;;;;;;;42.33;25.13;;;;;;;3.29;100.00;93338.69;5096936;28;20180;-67
2022/11/15 00:20:50;;;;;;;44.43;23.00;;;;;;;3.39;100.00;93356.25;5100001;28;20228;-67
2022/11/15 00:23:16;;;;;;;34.00;22.63;;;;;;;3.38;100.00;93346.94;5099006;28;20193;-67
2022/11/15 00:25:42;;;;;;;32.83;21.43;;;;;;;3.46;100.00;93352.59;5102325;28;20221;-68
2022/11/15 00:28:07;;;;;;;30.73;20.97;;;;;;;3.36;100.00;93356.69;5097415;28;20173;-68
2022/11/15 00:30:33;;;;;;;25.50;18.87;;;;;;;3.31;100.00;93347.78;5094590;28;20220;-68
2022/11/15 00:33:03;;;;;;;32.70;21.07;;;;;;;3.29;100.00;93351.59;5089253;28;20222;-68
2022/11/15 00:35:30;;;;;;;40.53;23.57;;;;;;;3.43;100.00;93340.13;5100101;28;20242;-68
2022/11/15 00:37:56;;;;;;;32.23;19.33;;;;;;;3.32;100.00;93343.44;5109711;28;20176;-68
2022/11/15 00:40:21;;;;;;;34.90;21.63;;;;;;;3.44;100.00;93339.09;5108131;28;20222;-68
2022/11/15 00:42:46;;;;;;;26.13;19.30;;;;;;;3.26;100.00;93326.22;5106533;28;20180;-67
2022/11/15 00:45:12;;;;;;;26.27;19.43;;;;;;;3.39;100.00;93338.19;5109868;28;20220;-66
2022/11/15 00:47:37;;;;;;;25.87;18.70;;;;;;;3.37;100.00;93333.25;5110704;28;20247;-67
2022/11/15 00:50:03;;;;;;;18.60;16.77;;;;;;;3.25;100.00;93335.00;5109171;28;20238;-67
2022/11/15 00:52:29;;;;;;;19.63;16.37;;;;;;;3.36;100.00;93336.03;5109117;28;21117;-66
2022/11/15 00:54:54;;;;;;;16.77;15.17;;;;;;;3.28;100.00;93339.72;5108486;28;20234;-67
2022/11/15 00:57:19;;;;;;;21.60;15.23;;;;;;;3.20;100.00;93337.41;5111207;28;20925;-67
2022/11/15 00:59:45;;;;;;;20.77;17.10;;;;;;;3.26;100.00;93326.22;5107794;28;20237;-66
2022/11/15 01:02:10;;;;;;;19.80;16.03;;;;;;;3.42;100.00;93324.84;5109332;28;20236;-67
2022/11/15 01:04:36;;;;;;;20.30;17.97;;;;;;;3.28;100.00;93326.81;5108080;28;20228;-68
2022/11/15 01:07:01;;;;;;;23.00;17.43;;;;;;;3.14;100.00;93317.66;5105548;28;20203;-67
2022/11/15 01:09:26;;;;;;;25.57;18.23;;;;;;;3.22;100.00;93327.69;5107480;28;20238;-67
2022/11/15 01:11:52;;;;;;;22.97;18.57;;;;;;;3.21;100.00;93326.88;5108480;28;20230;-67
2022/11/15 01:14:17;;;;;;;25.83;20.07;;;;;;;3.24;100.00;93323.88;5109345;28;20192;-67
2022/11/15 01:16:42;;;;;;;24.03;18.50;;;;;;;3.31;100.00;93327.16;5108895;28;20180;-66
2022/11/15 01:19:07;;;;;;;23.10;17.03;;;;;;;3.28;100.00;93335.31;5107899;28;20199;-67
2022/11/15 01:21:33;;;;;;;20.33;17.93;;;;;;;3.28;100.00;93321.66;5107282;28;20184;-67
2022/11/15 01:23:58;;;;;;;20.20;17.87;;;;;;;3.20;100.00;93321.94;5105207;28;20188;-66
2022/11/15 01:26:24;;;;;;;18.60;16.47;;;;;;;3.17;100.00;93318.00;5109010;28;20219;-67
2022/11/15 01:28:50;;;;;;;17.87;15.97;;;;;;;3.32;100.00;93320.19;5107641;28;20203;-67
2022/11/15 01:31:19;;;;;;;16.87;14.60;;;;;;;3.20;100.00;93317.56;5108864;28;20285;-67
2022/11/15 01:33:44;;;;;;;17.13;14.03;;;;;;;3.20;100.00;93321.94;5108040;28;20207;-67
2022/11/15 01:36:12;;;;;;;16.83;14.97;;;;;;;3.29;100.00;93318.84;5107637;28;20236;-66
2022/11/15 01:38:38;;;;;;;17.20;14.13;;;;;;;3.28;100.00;93319.84;5107535;28;20242;-66
2022/11/15 01:41:04;;;;;;;21.03;15.57;;;;;;;3.23;100.00;93312.00;5109880;28;20207;-66
2022/11/15 01:43:35;;;;;;;15.97;14.50;;;;;;;3.37;100.00;93317.75;5106728;28;20177;-67
2022/11/15 01:46:02;;;;;;;18.17;16.43;;;;;;;3.37;100.00;93312.59;5107324;28;20246;-66
2022/11/15 01:48:33;;;;;;;20.57;16.90;;;;;;;3.31;100.00;93319.41;5106470;28;20195;-67
2022/11/15 01:51:02;;;;;;;27.67;17.40;;;;;;;3.21;100.00;93315.78;5107127;28;20231;-67
2022/11/15 01:53:31;;;;;;;27.90;18.17;;;;;;;3.13;100.00;93293.63;5107563;28;20265;-66
2022/11/15 01:55:57;;;;;;;24.00;17.97;;;;;;;3.14;100.00;93307.34;5108871;28;20234;-66
2022/11/15 01:58:23;;;;;;;26.23;18.70;;;;;;;3.26;100.00;93305.59;5107032;28;20275;-66
2022/11/15 02:00:49;;;;;;;22.47;18.00;;;;;;;3.28;100.00;93314.69;5107585;28;20224;-66
2022/11/15 02:03:15;;;;;;;20.83;16.30;;;;;;;3.09;100.00;93305.41;5107019;28;20180;-66
2022/11/15 02:05:42;;;;;;;20.60;16.70;;;;;;;3.17;100.00;93312.06;5108421;28;20237;-67
2022/11/15 02:08:08;;;;;;;20.37;15.77;;;;;;;3.15;100.00;93306.31;5106846;28;20191;-68
2022/11/15 02:10:33;;;;;;;17.23;15.57;;;;;;;3.22;100.00;93309.63;5106858;28;20230;-68
2022/11/15 02:13:00;;;;;;;23.57;17.37;;;;;;;3.09;100.00;93310.56;5107831;28;20215;-66
2022/11/15 02:15:34;;;;;;;22.43;18.50;;;;;;;3.06;100.00;93305.03;5107737;28;20231;-65
2022/11/15 02:18:23;;;;;;;25.53;19.17;;;;;;;3.16;100.00;93311.25;5106566;28;20896;-66
2022/11/15 02:20:56;;;;;;;29.77;20.00;;;;;;;3.10;100.00;93291.50;5107338;28;20220;-67
2022/11/15 02:24:24;;;;;;;28.70;21.27;;;;;;;3.22;100.00;93309.63;5106280;28;20286;-65
2022/11/15 02:27:11;;;;;;;23.50;18.57;;;;;;;3.17;100.00;93301.75;5028782;28;20233;-65
2022/11/15 02:30:00;;;;;;;28.83;20.73;;;;;;;3.11;100.00;93298.22;5088231;28;20236;-65
2022/11/15 02:32:37;;;;;;;31.53;21.17;;;;;;;3.15;100.00;93303.75;5098953;28;20237;-66
2022/11/15 02:35:05;;;;;;;31.30;22.07;;;;;;;3.21;100.00;93302.88;5099428;28;20227;-66
2022/11/15 02:37:35;;;;;;;29.37;21.07;;;;;;;3.18;100.00;93298.13;5100007;28;20287;-66
2022/11/15 02:40:07;;;;;;;32.97;21.37;;;;;;;3.20;100.00;93296.94;5096953;28;20232;-66
2022/11/15 02:45:30;;;;;;;31.60;21.70;;;;;;;3.00;100.00;93296.34;5101858;28;20218;-66
2022/11/15 02:47:59;;;;;;;24.53;19.77;;;;;;;3.04;100.00;93296.72;5111892;28;20262;-66
2022/11/15 02:50:30;;;;;;;22.00;18.70;;;;;;;2.92;100.00;93299.25;5109440;28;20208;-65
2022/11/15 02:52:55;;;;;;;23.40;18.67;;;;;;;2.86;100.00;93301.91;5108868;28;20224;-66
2022/11/15 02:55:40;;;;;;;26.17;19.83;;;;;;;2.90;100.00;93296.09;5111934;28;20216;-65
2022/11/15 02:58:18;;;;;;;20.60;17.93;;;;;;;2.94;100.00;93296.47;5109978;28;20249;-66
2022/11/15 03:01:21;;;;;;;23.77;17.73;;;;;;;2.99;100.00;93292.22;5112726;28;20215;-66
2022/11/15 03:04:05;;;;;;;22.30;16.37;;;;;;;2.93;100.00;93300.00;5077398;28;20211;-65
2022/11/15 03:07:11;;;;;;;21.07;16.13;;;;;;;2.90;100.00;93301.25;5090892;28;20220;-66
2022/11/15 03:09:51;;;;;;;23.27;17.40;;;;;;;2.92;100.00;93299.25;5071127;28;20250;-66
2022/11/15 03:12:36;;;;;;;18.83;16.77;;;;;;;3.01;100.00;93297.16;5092589;28;20250;-65
2022/11/15 03:15:26;;;;;;;25.00;17.33;;;;;;;2.94;100.00;93299.81;5091676;28;20229;-65
2022/11/15 03:17:57;;;;;;;24.50;17.63;;;;;;;2.86;100.00;93297.50;5091639;28;20188;-65
2022/11/15 03:20:26;;;;;;;22.83;18.17;;;;;;;2.80;100.00;93300.94;5091354;28;20225;-66
2022/11/15 03:22:55;;;;;;;23.47;18.80;;;;;;;2.69;100.00;93282.84;5092320;28;20191;-65
2022/11/15 03:25:23;;;;;;;24.30;18.50;;;;;;;2.75;100.00;93282.78;5091200;28;20248;-66
2022/11/15 03:27:54;;;;;;;18.53;16.63;;;;;;;2.74;100.00;93285.56;5091143;28;20196;-65
2022/11/15 03:30:20;;;;;;;17.30;15.53;;;;;;;2.76;100.00;93286.13;5100613;28;20242;-66
2022/11/15 03:32:50;;;;;;;20.10;15.47;;;;;;;2.65;100.00;93287.63;5111241;28;20267;-66
2022/11/15 03:35:21;;;;;;;16.80;15.10;;;;;;;2.60;100.00;93290.06;5109370;28;20311;-65
2022/11/15 03:38:08;;;;;;;17.00;13.93;;;;;;;2.52;100.00;93282.59;5108887;28;20196;-66
2022/11/15 03:40:40;;;;;;;16.37;14.60;;;;;;;2.56;100.00;93278.59;5108747;28;20283;-67
2022/11/15 03:43:38;;;;;;;21.77;15.23;;;;;;;2.50;100.00;93276.09;5109933;28;20187;-65
2022/11/15 03:46:27;;;;;;;18.10;16.20;;;;;;;2.47;100.00;93258.47;5086439;28;20315;-66
2022/11/15 03:49:00;;;;;;;19.63;15.63;;;;;;;2.58;100.00;93265.50;5089853;28;20222;-66
2022/11/15 03:51:25;;;;;;;20.60;16.77;;;;;;;2.56;100.00;93258.00;5108446;28;20216;-67
2022/11/15 03:53:51;;;;;;;23.77;17.33;;;;;;;2.61;100.00;93255.56;5109519;28;20195;-65
2022/11/15 03:56:16;;;;;;;22.83;17.10;;;;;;;2.65;100.00;93248.97;5109153;28;20208;-66
2022/11/15 03:58:42;;;;;;;24.27;16.90;;;;;;;2.68;100.00;93250.31;5109240;28;20188;-65
2022/11/15 04:01:07;;;;;;;20.33;16.90;;;;;;;2.55;100.00;93250.47;5109211;28;20236;-66
2022/11/15 04:03:32;;;;;;;23.37;17.33;;;;;;;2.72;100.00;93252.28;5109475;28;20172;-65
2022/11/15 04:05:58;;;;;;;24.73;16.73;;;;;;;2.66;100.00;93252.34;5110578;28;20215;-65
2022/11/15 04:08:23;;;;;;;23.53;17.17;;;;;;;2.74;100.00;93255.41;5109040;28;20191;-65
2022/11/15 04:10:49;;;;;;;20.83;17.73;;;;;;;2.81;100.00;93245.03;5108639;28;20223;-65
2022/11/15 04:13:15;;;;;;;21.40;16.33;;;;;;;2.77;100.00;93254.97;5109488;28;20208;-65
2022/11/15 04:15:40;;;;;;;19.77;16.60;;;;;;;2.72;100.00;93251.47;5107940;28;20870;-66
2022/11/15 04:18:06;;;;;;;17.97;16.10;;;;;;;2.67;100.00;93233.28;5108432;28;20190;-67
2022/11/15 04:26:09;;;;;;;26.23;19.23;;;;;;;2.68;100.00;93240.00;5109577;28;20283;-67
2022/11/15 04:28:35;;;;;;;27.90;20.17;;;;;;;2.54;100.00;93244.53;5108153;28;20196;-67
2022/11/15 04:31:01;;;;;;;33.83;17.73;;;;;;;2.59;100.00;93231.00;5108699;28;20223;-66
2022/11/15 04:33:26;;;;;;;24.43;17.53;;;;;;;2.69;100.00;93226.13;5106368;28;20228;-66
2022/11/15 04:38:36;;;;;;;27.07;19.37;;;;;;;2.55;100.00;93237.59;5107974;28;20272;-66
2022/11/15 04:41:03;;;;;;;25.27;19.80;;;;;;;2.65;100.00;93233.50;5106624;28;20257;-66
2022/11/15 04:43:29;;;;;;;31.37;20.97;;;;;;;2.73;100.00;93240.16;5107098;28;20196;-69
2022/11/15 04:45:55;;;;;;;30.50;20.23;;;;;;;2.65;100.00;93232.69;5109024;28;20333;-68
2022/11/15 04:48:20;;;;;;;42.20;24.37;;;;;;;2.46;100.00;93223.41;5107996;28;20188;-67
2022/11/15 04:50:48;;;;;;;44.00;23.40;;;;;;;2.83;100.00;93248.94;5109073;28;20228;-68
2022/11/15 04:53:13;;;;;;;50.03;25.90;;;;;;;2.74;100.00;93229.63;5105823;28;20298;-67
2022/11/15 04:55:39;;;;;;;81.17;26.13;;;;;;;2.94;100.00;93252.63;5106844;28;20224;-69
2022/11/15 04:58:05;;;;;;;67.90;25.73;;;;;;;3.06;100.00;93250.88;5108438;28;20214;-68
2022/11/15 05:00:30;;;;;;;81.80;29.27;;;;;;;3.04;100.00;93229.66;5109571;28;20223;-68
2022/11/15 05:05:41;;;;;;;66.27;25.70;;;;;;;3.16;100.00;93238.22;5106903;28;20231;-70
2022/11/15 05:08:07;;;;;;;66.90;26.40;;;;;;;3.09;100.00;93242.69;5110255;28;20188;-71
2022/11/15 05:10:32;;;;;;;52.97;26.47;;;;;;;2.87;100.00;93244.97;5094890;28;20220;-69
2022/11/15 05:12:57;;;;;;;52.43;26.53;;;;;;;2.72;100.00;93243.75;5089693;28;20217;-68
2022/11/15 05:15:22;;;;;;;53.67;26.37;;;;;;;2.76;100.00;93242.28;5093643;28;20227;-69
2022/11/15 05:17:48;;;;;;;51.03;26.47;;;;;;;2.45;100.00;93220.03;5098853;28;20180;-68
2022/11/15 05:20:13;;;;;;;69.00;27.70;;;;;;;2.73;100.00;93259.00;5091555;28;20284;-69
2022/11/15 05:22:39;;;;;;;78.90;28.57;;;;;;;2.62;100.00;93251.19;5088525;28;20181;-69
2022/11/15 05:25:05;;;;;;;81.80;27.47;;;;;;;2.77;100.00;93254.97;5089144;28;20216;-68
2022/11/15 05:27:30;;;;;;;40.10;28.40;;;;;;;2.90;100.00;93243.72;5089690;28;20188;-69
2022/11/15 05:29:56;;;;;;;40.50;28.87;;;;;;;2.98;100.00;93258.91;5089172;28;20258;-68
2022/11/15 05:32:21;;;;;;;61.80;28.00;;;;;;;2.99;100.00;93247.56;5088835;28;20223;-70
2022/11/15 05:34:46;;;;;;;53.23;28.60;;;;;;;2.99;100.00;93247.56;5088564;28;20260;-71
2022/11/15 05:37:13;;;;;;;88.60;35.53;;;;;;;3.09;100.00;93243.50;5087660;28;20177;-70
2022/11/15 05:39:39;;;;;;;82.30;36.37;;;;;;;3.05;100.00;93241.56;5087807;28;20266;-70
2022/11/15 05:42:10;;;;;;;86.93;36.83;;;;;;;3.08;100.00;93244.47;5086873;28;20888;-70
2022/11/15 05:44:36;;;;;;;76.30;33.83;;;;;;;3.25;100.00;93255.00;5087936;28;20224;-70
2022/11/15 05:47:05;;;;;;;74.03;32.13;;;;;;;3.25;100.00;93242.88;5088340;28;20694;-70
2022/11/15 05:49:36;;;;;;;52.37;28.73;;;;;;;3.38;100.00;93252.25;5087427;28;20244;-70
2022/11/15 05:52:05;;;;;;;63.73;27.97;;;;;;;3.45;100.00;93252.16;5087542;28;20243;-69
2022/11/15 05:54:31;;;;;;;53.43;25.47;;;;;;;3.41;100.00;93251.78;5084920;28;20236;-70
2022/11/15 05:56:57;;;;;;;48.93;27.87;;;;;;;3.44;100.00;93255.75;5086783;28;20184;-70
2022/11/15 05:59:23;;;;;;;60.70;24.60;;;;;;;3.23;100.00;93233.78;5087390;28;20263;-71
2022/11/15 06:01:48;;;;;;;48.73;25.90;;;;;;;3.44;100.00;93246.19;5106630;28;20188;-71
2022/11/15 06:04:14;;;;;;;40.53;22.90;;;;;;;3.45;100.00;93227.16;5105599;28;20180;-70
2022/11/15 06:06:39;;;;;;;39.47;23.80;;;;;;;3.41;100.00;93251.03;5106816;28;20203;-69
2022/11/15 06:09:05;;;;;;;50.73;28.43;;;;;;;3.41;100.00;93236.31;5105235;28;20252;-70
2022/11/15 06:11:30;;;;;;;51.70;25.57;;;;;;;3.43;100.00;93257.53;5103945;28;20283;-68
2022/11/15 06:13:56;;;;;;;50.13;26.33;;;;;;;3.38;100.00;93257.41;5103253;28;20177;-70
2022/11/15 06:16:22;;;;;;;47.93;26.83;;;;;;;3.42;100.00;93244.84;5104534;28;20220;-69
2022/11/15 06:18:47;;;;;;;56.10;30.47;;;;;;;3.43;100.00;93257.53;5106906;28;20184;-69
2022/11/15 06:21:12;;;;;;;53.37;27.87;;;;;;;3.61;100.00;93267.78;5107077;28;20231;-70
2022/11/15 06:23:38;;;;;;;45.43;28.40;;;;;;;3.70;100.00;93270.88;5107131;28;20192;-68
2022/11/15 06:26:03;;;;;;;55.27;27.83;;;;;;;3.76;100.00;93265.63;5104907;28;20212;-69
2022/11/15 06:28:30;;;;;;;46.33;26.57;;;;;;;4.08;100.00;93269.47;5108114;28;20214;-68
2022/11/15 06:31:01;;;;;;;57.57;27.63;;;;;;;3.93;100.00;93261.38;5105925;28;20234;-68
2022/11/15 06:33:26;;;;;;;42.50;25.40;;;;;;;4.35;100.00;93255.13;5107532;28;20239;-67
2022/11/15 06:35:52;;;;;;;50.80;25.57;;;;;;;4.49;100.00;93266.03;5097654;28;21253;-68
2022/11/15 06:38:17;;;;;;;47.37;26.27;;;;;;;4.43;100.00;93261.75;5108656;28;20180;-68
2022/11/15 06:40:42;;;;;;;52.87;27.67;;;;;;;4.64;100.00;93254.22;5106151;28;20235;-69
2022/11/15 06:43:08;;;;;;;64.23;25.93;;;;;;;4.49;100.00;93233.22;5108479;28;20222;-68
2022/11/15 06:45:33;;;;;;;55.13;26.43;;;;;;;4.44;100.00;93252.97;5105789;28;20245;-68
2022/11/15 06:47:59;;;;;;;60.00;26.10;;;;;;;4.02;100.00;93259.25;5107185;28;20202;-68
2022/11/15 06:50:24;;;;;;;54.20;27.03;;;;;;;4.43;100.00;93254.81;5106293;28;20226;-68
2022/11/15 06:52:50;;;;;;;54.80;27.57;;;;;;;4.37;100.00;93242.75;5106992;28;20204;-68
2022/11/15 06:55:15;;;;;;;43.80;26.10;;;;;;;4.21;100.00;93258.16;5105437;28;20239;-67
2022/11/15 06:57:51;;;;;;;61.30;28.77;;;;;;;4.46;100.00;93250.97;5104976;28;20211;-69
2022/11/15 07:00:19;;;;;;;58.20;26.90;;;;;;;4.74;100.00;93253.66;5107128;28;20251;-69
2022/11/15 07:02:45;;;;;;;59.90;28.80;;;;;;;4.75;100.00;93243.06;5105145;28;20192;-69
2022/11/15 07:05:11;;;;;;;67.67;28.60;;;;;;;4.92;100.00;93259.47;5104368;28;20234;-70
2022/11/15 07:07:36;;;;;;;57.43;25.97;;;;;;;4.97;100.00;93236.28;5107541;28;20192;-69
2022/11/15 07:10:02;;;;;;;79.70;25.60;;;;;;;5.06;100.00;93246.28;5105977;28;20234;-69
2022/11/15 07:12:27;;;;;;;50.13;26.17;;;;;;;4.91;100.00;93257.09;5107490;28;20211;-69
2022/11/15 07:14:53;;;;;;;53.30;25.70;;;;;;;5.17;100.00;93248.06;5106007;28;20235;-69
2022/11/15 07:17:18;;;;;;;55.73;24.17;;;;;;;5.10;100.00;93237.03;5106066;28;20785;-69
2022/11/15 07:19:43;;;;;;;65.83;24.50;;;;;;;4.84;100.00;93228.75;5111054;28;20273;-68
2022/11/15 07:22:09;;;;;;;54.27;27.00;;;;;;;4.83;100.00;93237.56;5110185;28;20180;-68
2022/11/15 07:24:34;;;;;;;56.60;28.00;;;;;;;5.08;100.00;93239.06;5110701;28;20240;-69
2022/11/15 07:26:59;;;;;;;70.37;28.20;;;;;;;5.11;100.00;93234.22;5111108;28;20195;-67
2022/11/15 07:29:25;;;;;;;69.83;27.50;;;;;;;4.69;100.00;93175.94;5111323;28;20252;-68
2022/11/15 07:31:50;;;;;;;69.10;27.97;;;;;;;5.12;100.00;93247.94;5111964;28;20206;-68
2022/11/15 07:34:16;;;;;;;54.53;27.77;;;;;;;4.62;100.00;93252.88;5108770;28;20184;-69
2022/11/15 07:36:41;;;;;;;60.73;25.97;;;;;;;4.53;100.00;93228.34;5110929;28;20192;-70
2022/11/15 07:39:07;;;;;;;82.00;27.47;;;;;;;5.23;100.00;93242.72;5109661;28;20219;-68
2022/11/15 07:41:32;;;;;;;53.63;24.57;;;;;;;5.07;100.00;93242.66;5106919;28;20222;-69
2022/11/15 07:43:58;;;;;;;77.93;27.20;;;;;;;4.72;100.00;93250.50;5109955;28;20216;-68
2022/11/15 07:46:23;;;;;;;49.97;27.27;;;;;;;5.33;100.00;93242.13;5109209;28;20224;-69
2022/11/15 07:48:48;;;;;;;53.93;28.73;;;;;;;5.45;100.00;93246.25;5110732;28;20203;-68
2022/11/15 07:51:15;;;;;;;52.50;30.10;;;;;;;5.52;100.00;93249.50;5110636;28;20228;-68
2022/11/15 07:53:44;;;;;;;51.97;29.03;;;;;;;5.57;100.00;93243.63;5110187;28;20220;-67
2022/11/15 07:56:10;;;;;;;71.03;30.90;;;;;;;5.71;100.00;93244.91;5111549;28;20248;-68
2022/11/15 07:58:36;;;;;;;56.73;30.63;;;;;;;5.74;100.00;93249.63;5110844;28;20184;-69
2022/11/15 08:01:09;;;;;;;76.27;30.80;;;;;;;5.51;100.00;93247.13;5110205;28;20223;-68
2022/11/15 08:03:36;;;;;;;78.70;36.17;;;;;;;5.73;100.00;93250.59;5110293;28;20203;-69
2022/11/15 08:06:02;;;;;;;54.90;29.57;;;;;;;5.80;100.00;93239.09;5110613;28;20220;-67
2022/11/15 08:08:27;;;;;;;82.87;30.20;;;;;;;5.68;100.00;93227.22;5108728;28;20207;-68
2022/11/15 08:10:53;;;;;;;74.67;31.33;;;;;;;5.74;100.00;93240.03;5109963;28;20223;-67
2022/11/15 08:13:19;;;;;;;70.80;32.33;;;;;;;5.44;100.00;93234.31;5110883;28;20231;-68
2022/11/15 08:15:44;;;;;;;67.43;33.60;;;;;;;6.10;100.00;93233.66;5109481;28;20265;-69
2022/11/15 08:18:15;;;;;;;76.03;37.20;;;;;;;5.68;100.00;93224.66;5109911;28;20198;-69
2022/11/15 08:20:41;;;;;;;77.23;36.40;;;;;;;5.43;100.00;93216.44;5108518;28;20238;-68
2022/11/15 08:23:08;;;;;;;95.07;40.53;;;;;;;6.16;100.00;93222.34;5109685;28;20207;-69
2022/11/15 08:25:34;;;;;;;76.83;34.37;;;;;;;6.34;100.00;93241.03;5109896;28;20235;-69
2022/11/15 08:28:03;;;;;;;65.83;30.57;;;;;;;6.42;99.34;93232.84;5108570;28;20198;-69
2022/11/15 08:30:29;;;;;;;120.20;48.70;;;;;;;6.26;99.17;93245.81;5107483;28;20236;-69
2022/11/15 08:32:57;;;;;;;55.97;32.40;;;;;;;6.16;100.00;93240.50;5109817;28;20219;-69
2022/11/15 08:35:23;;;;;;;108.70;51.47;;;;;;;6.07;99.51;93239.31;5109153;28;20223;-67
2022/11/15 08:37:49;;;;;;;75.47;37.63;;;;;;;6.28;98.98;93234.19;5107636;28;20177;-67
2022/11/15 08:40:15;;;;;;;67.97;33.17;;;;;;;6.06;100.00;93237.72;5109708;28;20253;-68
2022/11/15 08:42:40;;;;;;;90.00;49.37;;;;;;;6.17;100.00;93208.34;5110900;28;20199;-71
2022/11/15 08:45:06;;;;;;;76.57;34.87;;;;;;;6.04;99.64;93188.72;5108131;28;20223;-70
2022/11/15 08:47:32;;;;;;;66.87;37.30;;;;;;;6.39;99.22;93232.53;5108767;28;20180;-69
2022/11/15 08:49:57;;;;;;;70.40;33.40;;;;;;;6.39;99.23;93225.56;5108415;28;20254;-69
2022/11/15 08:52:23;;;;;;;75.00;36.73;;;;;;;6.48;99.39;93212.94;5106902;28;20215;-68
2022/11/15 08:54:48;;;;;;;73.77;37.33;;;;;;;6.57;98.57;93208.91;5106017;28;20212;-68
2022/11/15 08:57:14;;;;;;;69.60;34.90;;;;;;;6.73;97.90;93207.31;5109847;28;20183;-68
2022/11/15 08:59:39;;;;;;;73.17;34.17;;;;;;;6.47;97.39;93188.06;5109288;28;20864;-70
2022/11/15 09:02:05;;;;;;;85.67;34.47;;;;;;;6.34;99.32;93206.53;5108928;28;20214;-69
2022/11/15 09:04:31;;;;;;;75.10;36.60;;;;;;;6.61;99.15;93210.03;5108147;28;20231;-69
2022/11/15 09:06:56;;;;;;;81.77;38.13;;;;;;;6.81;99.36;93204.31;5107995;28;20201;-69
2022/11/15 09:09:22;;;;;;;104.07;46.13;;;;;;;6.75;97.36;93200.88;5107042;28;20184;-69
2022/11/15 09:11:48;;;;;;;105.77;39.63;;;;;;;6.64;98.54;93200.97;5109693;28;20247;-71
2022/11/15 09:14:14;;;;;;;77.47;37.90;;;;;;;6.76;98.34;93192.06;5107574;28;20216;-69
2022/11/15 09:16:40;;;;;;;82.13;37.47;;;;;;;6.83;98.57;93158.94;5107866;28;20195;-69
2022/11/15 09:19:06;;;;;;;80.70;38.13;;;;;;;7.20;96.41;93191.03;5108361;28;20199;-71
2022/11/15 09:21:31;;;;;;;76.77;36.50;;;;;;;6.91;97.50;93178.50;5107296;28;20212;-72
2022/11/15 09:23:57;;;;;;;102.53;52.90;;;;;;;7.08;96.39;93185.16;5107164;28;20184;-73
2022/11/15 09:26:23;;;;;;;77.30;39.10;;;;;;;7.28;95.70;93190.59;5106997;28;20216;-71
2022/11/15 09:28:48;;;;;;;84.37;39.00;;;;;;;7.38;96.01;93185.50;5107744;28;20180;-71
2022/11/15 09:31:14;;;;;;;84.30;40.33;;;;;;;7.27;96.46;93183.06;5107037;28;20214;-72
2022/11/15 09:33:39;;;;;;;98.00;48.67;;;;;;;7.46;96.00;93177.25;5107607;28;20243;-73
2022/11/15 09:36:09;;;;;;;91.87;40.33;;;;;;;7.37;94.54;93183.94;5107270;28;20241;-72
2022/11/15 09:38:35;;;;;;;94.23;40.63;;;;;;;7.27;95.24;93178.63;5107504;28;20223;-72
2022/11/15 09:41:12;;;;;;;88.13;40.17;;;;;;;7.04;97.40;93171.09;5108175;28;20219;-72
2022/11/15 09:44:08;;;;;;;102.77;47.47;;;;;;;7.07;97.06;93165.44;5107325;28;20202;-72
2022/11/15 09:46:42;;;;;;;97.77;42.00;;;;;;;7.18;96.46;93172.31;5087399;28;20283;-74
2022/11/15 09:49:11;;;;;;;114.73;42.70;;;;;;;6.94;95.58;93158.00;5086854;28;20184;-72
2022/11/15 09:51:46;;;;;;;115.30;50.87;;;;;;;6.93;97.53;93159.03;5087839;28;20214;-70
2022/11/15 09:54:21;;;;;;;108.37;47.97;;;;;;;7.08;95.86;93158.44;5088006;28;20190;-72
2022/11/15 09:56:47;;;;;;;104.37;46.77;;;;;;;6.90;97.34;93149.16;5089207;28;20219;-73
2022/11/15 09:59:31;;;;;;;98.87;41.57;;;;;;;7.25;96.77;93151.34;5087857;28;20185;-72
2022/11/15 10:02:02;;;;;;;96.03;43.67;;;;;;;7.30;96.10;93146.22;5084033;28;20196;-72
2022/11/15 10:04:28;;;;;;;99.23;44.93;;;;;;;7.12;98.52;93136.94;5084904;28;20236;-72
2022/11/15 10:07:19;;;;;;;98.33;43.30;;;;;;;7.40;96.65;93144.47;5088449;28;20197;-72
2022/11/15 10:09:49;;;;;;;95.57;42.20;;;;;;;7.60;94.65;93146.47;5088763;28;20228;-72
2022/11/15 10:12:15;;;;;;;105.30;44.23;;;;;;;7.86;92.82;93136.03;5096833;28;20209;-72
2022/11/15 10:14:42;;;;;;;108.90;44.73;;;;;;;7.63;93.22;93132.97;5097955;28;20232;-72
2022/11/15 10:17:19;;;;;;;99.63;43.07;;;;;;;7.45;94.64;93128.16;5108762;28;20218;-72
2022/11/15 10:19:58;;;;;;;95.13;42.77;;;;;;;7.39;94.81;93122.13;5108025;28;20239;-72
2022/11/15 10:22:49;;;;;;;104.53;44.37;;;;;;;7.08;96.62;93117.66;5108257;28;20180;-71
2022/11/15 10:25:22;;;;;;;96.93;43.50;;;;;;;7.19;97.64;93119.34;5107620;28;20223;-72
2022/11/15 10:28:12;;;;;;;109.10;46.13;;;;;;;7.23;96.80;93120.44;5107305;28;20225;-72
2022/11/15 10:30:41;;;;;;;107.27;45.30;;;;;;;6.96;98.46;93108.47;5105305;28;20243;-72
2022/11/15 10:33:21;;;;;;;102.77;42.83;;;;;;;6.88;100.00;93109.66;5106956;28;20284;-71
2022/11/15 10:35:46;;;;;;;107.93;45.80;;;;;;;7.21;98.98;93106.09;5107911;28;20227;-72
2022/11/15 10:38:12;;;;;;;116.03;44.97;;;;;;;7.25;99.11;93097.59;5107238;28;20195;-72
2022/11/15 10:40:40;;;;;;;99.03;44.03;;;;;;;7.14;98.76;93095.94;5107263;28;20224;-72
2022/11/15 10:43:17;;;;;;;117.50;47.57;;;;;;;7.33;98.37;93089.34;5108127;28;20212;-72
2022/11/15 10:45:43;;;;;;;104.60;45.93;;;;;;;7.31;98.89;93081.03;5105872;28;20235;-71
2022/11/15 10:48:20;;;;;;;119.33;46.70;;;;;;;7.42;98.85;93077.50;5106870;28;20271;-72
2022/11/15 10:50:47;;;;;;;108.30;46.00;;;;;;;7.47;98.85;93080.13;5107316;28;20316;-71
2022/11/15 10:53:25;;;;;;;114.40;52.37;;;;;;;7.39;98.46;93077.19;5107929;28;20219;-72
2022/11/15 10:55:56;;;;;;;111.00;46.77;;;;;;;7.39;99.31;93077.97;5109026;28;20243;-71
2022/11/15 10:58:30;;;;;;;104.67;46.33;;;;;;;7.32;99.30;93061.81;5109961;28;20251;-72
2022/11/15 11:00:55;;;;;;;111.90;48.10;;;;;;;7.51;98.01;93068.22;5110847;28;20288;-71
2022/11/15 11:03:28;;;;;;;106.00;47.53;;;;;;;7.54;98.95;93070.31;5110177;28;20184;-71
2022/11/15 11:06:23;;;;;;;100.93;46.27;;;;;;;7.34;98.69;93058.97;5108550;28;20259;-71
2022/11/15 11:09:03;;;;;;;94.00;45.37;;;;;;;7.09;99.67;93059.53;5101964;28;20192;-71
2022/11/15 11:11:47;;;;;;;115.03;46.30;;;;;;;7.53;97.94;93049.78;5108982;28;20227;-71
2022/11/15 11:14:25;;;;;;;97.80;44.20;;;;;;;7.48;97.48;93039.34;5110627;28;20974;-71
2022/11/15 11:16:55;;;;;;;85.20;43.53;;;;;;;7.61;97.06;93044.13;5111958;28;20180;-69
2022/11/15 11:20:08;;;;;;;96.50;43.77;;;;;;;7.76;94.92;93039.81;5108301;28;20194;-69
2022/11/15 11:22:57;;;;;;;89.20;43.03;;;;;;;7.75;94.33;93020.03;5104428;28;20291;-69
2022/11/15 11:25:43;;;;;;;89.40;44.77;;;;;;;7.93;93.49;93037.03;5109461;28;20224;-70
2022/11/15 11:28:27;;;;;;;85.83;40.27;;;;;;;7.80;95.01;93033.06;5110530;28;20180;-71
2022/11/15 11:31:16;;;;;;;88.77;42.33;;;;;;;7.76;94.61;93011.22;5108138;28;20241;-71
2022/11/15 11:33:50;;;;;;;89.97;43.47;;;;;;;7.85;94.36;92998.53;5110841;28;20283;-71
2022/11/15 11:36:34;;;;;;;90.50;46.33;;;;;;;8.14;92.65;93013.50;5107018;28;20224;-68
2022/11/15 11:39:41;;;;;;;78.97;41.33;;;;;;;8.26;90.32;93004.72;5107660;28;20195;-69
2022/11/15 11:42:29;;;;;;;77.97;40.30;;;;;;;8.36;90.17;93004.78;5104075;28;20251;-69
2022/11/15 11:45:24;;;;;;;86.70;38.97;;;;;;;8.28;90.38;92992.25;5095403;28;20231;-69